Map

Track Data

SID SEASON NUMBER BASIN SUBBASIN NAME ISO_TIME NATURE LAT LON WMO_WIND WMO_PRES WMO_AGENCY TRACK_TYPE DIST2LAND LANDFALL IFLAG USA_AGENCY USA_ATCF_ID USA_LAT USA_LON USA_RECORD USA_STATUS USA_WIND USA_PRES USA_SSHS USA_R34_NE USA_R34_SE USA_R34_SW USA_R34_NW USA_R50_NE USA_R50_SE USA_R50_SW USA_R50_NW USA_R64_NE USA_R64_SE USA_R64_SW USA_R64_NW USA_POCI USA_ROCI USA_RMW USA_EYE TOKYO_LAT TOKYO_LON TOKYO_GRADE TOKYO_WIND TOKYO_PRES TOKYO_R50_DIR TOKYO_R50_LONG TOKYO_R50_SHORT TOKYO_R30_DIR TOKYO_R30_LONG TOKYO_R30_SHORT TOKYO_LAND CMA_LAT CMA_LON CMA_CAT CMA_WIND CMA_PRES HKO_LAT HKO_LON HKO_CAT HKO_WIND HKO_PRES NEWDELHI_LAT NEWDELHI_LON NEWDELHI_GRADE NEWDELHI_WIND NEWDELHI_PRES NEWDELHI_CI NEWDELHI_DP NEWDELHI_POCI REUNION_LAT REUNION_LON REUNION_TYPE REUNION_WIND REUNION_PRES REUNION_TNUM REUNION_CI REUNION_RMW REUNION_R34_NE REUNION_R34_SE REUNION_R34_SW REUNION_R34_NW REUNION_R50_NE REUNION_R50_SE REUNION_R50_SW REUNION_R50_NW REUNION_R64_NE REUNION_R64_SE REUNION_R64_SW REUNION_R64_NW BOM_LAT BOM_LON BOM_TYPE BOM_WIND BOM_PRES BOM_TNUM BOM_CI BOM_RMW BOM_R34_NE BOM_R34_SE BOM_R34_SW BOM_R34_NW BOM_R50_NE BOM_R50_SE BOM_R50_SW BOM_R50_NW BOM_R64_NE BOM_R64_SE BOM_R64_SW BOM_R64_NW BOM_ROCI BOM_POCI BOM_EYE BOM_POS_METHOD BOM_PRES_METHOD NADI_LAT NADI_LON NADI_CAT NADI_WIND NADI_PRES WELLINGTON_LAT WELLINGTON_LON WELLINGTON_WIND WELLINGTON_PRES DS824_LAT DS824_LON DS824_STAGE DS824_WIND DS824_PRES TD9636_LAT TD9636_LON TD9636_STAGE TD9636_WIND TD9636_PRES TD9635_LAT TD9635_LON TD9635_WIND TD9635_PRES TD9635_ROCI NEUMANN_LAT NEUMANN_LON NEUMANN_CLASS NEUMANN_WIND NEUMANN_PRES MLC_LAT MLC_LON MLC_CLASS MLC_WIND MLC_PRES USA_GUST BOM_GUST BOM_GUST_PER REUNION_GUST REUNION_GUST_PER USA_SEAHGT USA_SEARAD_NE USA_SEARAD_SE USA_SEARAD_SW USA_SEARAD_NW STORM_SPEED STORM_DIR
1987343N05154 1987 101 WP MM PHYLLIS 1987-12-09 00:00:00 NR 5.20000 153.500 main 931 915 O_________O___ jtwc_wp WP251987 5.20000 153.500 20 -1 5.20000 153.500 1 20 11 269
1987343N05154 1987 101 WP MM PHYLLIS 1987-12-09 03:00:00 NR 5.18714 152.949 main 912 900 P_________P___ WP251987 5.20511 152.940 20 -1 5.16916 152.958 1 20 11 269
1987343N05154 1987 101 WP MM PHYLLIS 1987-12-09 06:00:00 NR 5.17523 152.411 main 900 892 O_________P___ jtwc_wp WP251987 5.20000 152.400 20 -1 5.15046 152.422 1 20 10 269
1987343N05154 1987 101 WP MM PHYLLIS 1987-12-09 09:00:00 NR 5.17074 151.897 main 892 887 P_________P___ WP251987 5.18494 151.892 20 -1 5.15653 151.901 1 20 10 271
1987343N05154 1987 101 WP MM PHYLLIS 1987-12-09 12:00:00 NR 5.20000 151.400 main 887 885 O_________O___ jtwc_wp WP251987 5.20000 151.400 20 -1 5.20000 151.400 1 20 10 276
1987343N05154 1987 101 WP MM PHYLLIS 1987-12-09 15:00:00 NR 5.28019 150.908 main 896 896 P_________P___ WP251987 5.26998 150.892 20 -1 5.29040 150.923 1 21 10 282
1987343N05154 1987 101 WP MM PHYLLIS 1987-12-09 18:00:00 NR 5.41234 150.429 main 904 900 O_________P___ jtwc_wp WP251987 5.40000 150.400 20 -1 5.42468 150.457 1 22 10 288
1987343N05154 1987 101 WP MM PHYLLIS 1987-12-09 21:00:00 NR 5.58703 149.969 main 910 903 P_________P___ WP251987 5.57743 149.950 22 -1 5.59663 149.988 1 23 10 293
1987343N05154 1987 101 WP MM PHYLLIS 1987-12-10 00:00:00 NR 5.80000 149.500 main 915 912 O_________O___ jtwc_wp WP251987 5.80000 149.500 25 -1 5.80000 149.500 1 25 11 295
1987343N05154 1987 101 WP MM PHYLLIS 1987-12-10 03:00:00 NR 6.02565 149.007 main 924 924 P_________P___ WP251987 6.04243 149.022 25 -1 6.00886 148.992 1 25 11 295
1987343N05154 1987 101 WP MM PHYLLIS 1987-12-10 06:00:00 NR 6.27359 148.480 main 949 946 O_________P___ jtwc_wp WP251987 6.30000 148.500 25 -1 6.24717 148.460 1 25 12 295
1987343N05154 1987 101 WP MM PHYLLIS 1987-12-10 09:00:00 NR 6.53094 147.906 main 965 965 P_________P___ WP251987 6.54998 147.915 25 -1 6.51190 147.898 1 25 13 294
1987343N05154 1987 101 WP MM PHYLLIS 1987-12-10 12:00:00 NR 6.80000 147.300 main 997 997 O_________O___ jtwc_wp WP251987 6.80000 147.300 25 -1 6.80000 147.300 1 25 13 293
1987343N05154 1987 101 WP MM PHYLLIS 1987-12-10 15:00:00 NR 7.05337 146.671 main 1030 1030 P_________P___ WP251987 7.02733 146.722 25 -1 7.07941 146.620 1 26 14 292
1987343N05154 1987 101 WP MM PHYLLIS 1987-12-10 18:00:00 NR 7.30358 146.039 main 1055 1055 O__O______P___ jtwc_wp WP251987 7.30000 146.100 25 -1 7.00000 146.300 TD 25 1002 7.38305 145.912 1 27 15 294
1987343N05154 1987 101 WP MM PHYLLIS 1987-12-10 21:00:00 NR 7.66018 145.299 main 1107 1107 P__P______P___ WP251987 7.67763 145.343 27 -1 7.50547 145.363 TD 25 1002 7.72009 145.223 1 28 17 299
1987343N05154 1987 101 WP MM PHYLLIS 1987-12-11 00:00:00 TS 8.09167 144.575 1008 tokyo main 1164 1164 OO_O______O___ jtwc_wp WP251987 8.10000 144.600 30 -1 8.30000 144.600 2 1008 0 0 0 8.00000 144.500 TD 25 1002 8.10000 144.600 1 30 16 302
1987343N05154 1987 101 WP MM PHYLLIS 1987-12-11 03:00:00 TS 8.49202 143.957 main 1222 1222 PP_P______P___ WP251987 8.47741 143.982 30 -1 8.45771 143.985 2 1007 0 0 8.47233 143.775 TD 25 1002 8.54347 144.099 1 30 14 303
1987343N05154 1987 101 WP MM PHYLLIS 1987-12-11 06:00:00 TS 8.87544 143.354 1006 tokyo main 1282 1282 OOOO______P___ jtwc_wp WP251987 8.90000 143.500 30 -1 8.70000 143.400 2 1006 0 0 0 8.60000 142.000 0 19 1005 8.90000 143.200 TD 25 1002 9.02675 143.667 1 30 13 307
1987343N05154 1987 101 WP MM PHYLLIS 1987-12-11 09:00:00 TS 9.30167 142.887 main 1327 1327 PPPP______P___ WP251987 9.44233 143.170 30 -1 9.07743 142.870 2 1006 0 0 9.10252 141.840 0 21 1005 9.26482 142.755 TD 25 1002 9.52170 143.277 1 30 12 315
1987343N05154 1987 101 WP MM PHYLLIS 1987-12-11 12:00:00 TS 9.73158 142.500 1006 tokyo main 1352 1352 OOOO______O___ jtwc_wp WP251987 10.0000 142.900 30 -1 9.50000 142.400 2 1006 0 0 0 9.50000 141.700 1 23 1005 9.60000 142.400 TD 25 1002 10.0000 142.900 1 30 11 316
1987343N05154 1987 101 WP MM PHYLLIS 1987-12-11 15:00:00 TS 10.0945 142.122 main 1380 1380 PPPP______P___ WP251987 10.4799 142.572 32 -1 9.85748 141.955 2 1005 0 0 9.74249 141.592 1 23 1005 9.94246 142.035 TD 25 1002 10.4500 142.456 1 31 10 317
1987343N05154 1987 101 WP MM PHYLLIS 1987-12-11 18:00:00 TS 10.4550 141.805 1004 tokyo main 1413 1410 OOOO______P___ jtwc_wp WP251987 10.9000 142.200 35 0 10.2000 141.600 2 1004 0 0 0 10.0000 141.500 1 23 1005 10.3000 141.700 TD 25 1002 10.8751 142.025 1 32 10 321
1987343N05154 1987 101 WP MM PHYLLIS 1987-12-11 21:00:00 TS 10.8480 141.507 main 1436 1436 PPPP______P___ WP251987 11.2726 141.743 35 0 10.5424 141.362 2 1004 0 0 10.4775 141.415 1 26 1001 10.6850 141.385 TD 27 1001 11.2626 141.632 1 33 10 325
1987343N05154 1987 101 WP MM PHYLLIS 1987-12-12 00:00:00 TS 11.2400 141.240 1004 tokyo main 1466 1466 OOOO______O___ jtwc_wp WP251987 11.6000 141.300 35 0 10.9000 141.200 2 1004 0 0 0 11.0000 141.300 1 29 998 11.1000 141.100 TD 30 1000 11.6000 141.300 2 35 9 327
1987343N05154 1987 101 WP MM PHYLLIS 1987-12-12 03:00:00 TS 11.6181 140.991 main 1499 1499 PPPP______P___ WP251987 11.9300 140.940 35 0 11.2925 141.057 2 1002 0 0 11.4225 141.100 1 33 998 11.5500 140.820 TD 30 1000 11.8953 141.040 2 35 9 329
1987343N05154 1987 101 WP MM PHYLLIS 1987-12-12 06:00:00 TS 11.9679 140.789 35 1000 tokyo main 1532 1532 OOOO______P___ jtwc_wp WP251987 12.2000 140.700 35 0 11.7000 140.900 3 35 1000 0 9 60 60 0 11.8000 140.900 2 38 998 12.0000 140.600 TD 30 1000 12.1396 140.845 2 35 7 333
1987343N05154 1987 101 WP MM PHYLLIS 1987-12-12 09:00:00 TS 12.2798 140.644 main 1556 1556 PPPP______P___ WP251987 12.3799 140.612 35 0 12.1226 140.643 3 37 999 0 9 70 70 12.1425 140.792 2 38 998 12.4150 140.470 TD 30 1000 12.3392 140.702 2 35 6 338
1987343N05154 1987 101 WP MM PHYLLIS 1987-12-12 12:00:00 TS 12.5600 140.540 40 998 tokyo main 1584 1584 OOOO______O___ jtwc_wp WP251987 12.5000 140.600 35 0 12.5000 140.400 3 40 998 0 9 80 80 0 12.5000 140.700 2 38 998 12.8000 140.400 TD 30 1000 12.5000 140.600 2 35 6 341
1987343N05154 1987 101 WP MM PHYLLIS 1987-12-12 15:00:00 TS 12.8336 140.455 main 1606 1603 PPPP______P___ WP251987 12.6075 140.550 35 0 12.7725 140.270 3 40 997 0 9 100 100 12.9725 140.565 2 38 997 13.1800 140.342 TD 32 999 12.6358 140.546 2 33 5 343
1987343N05154 1987 101 WP MM PHYLLIS 1987-12-12 18:00:00 TS 13.0675 140.384 40 996 tokyo main 1605 1596 OOOO______P___ jtwc_wp WP251987 12.7000 140.500 35 0 13.0000 140.200 3 40 996 0 9 120 120 0 13.4000 140.400 2 38 996 13.5000 140.300 TS 35 998 12.7373 140.522 2 32 5 341
1987343N05154 1987 101 WP MM PHYLLIS 1987-12-12 21:00:00 TS 13.2595 140.306 main 1597 1588 PPPP______P___ WP251987 12.7925 140.457 32 -1 13.2725 140.135 3 40 995 0 9 120 120 13.6675 140.193 2 38 996 13.7450 140.257 TS 35 998 12.8201 140.487 2 31 4 334
1987343N05154 1987 101 WP MM PHYLLIS 1987-12-13 00:00:00 TS 13.4000 140.220 40 994 tokyo main 1588 1588 OOOO______O___ jtwc_wp WP251987 12.9000 140.400 30 -1 13.5000 140.100 3 40 994 0 9 120 120 0 13.8000 140.000 2 38 996 13.9000 140.200 TS 35 998 12.9000 140.400 1 30 3 332
1987343N05154 1987 101 WP MM PHYLLIS 1987-12-13 03:00:00 TS 13.5269 140.160 main 1590 1570 PPPP______P___ WP251987 13.0574 140.352 30 -1 13.6674 140.160 3 42 994 0 9 135 135 13.8524 139.930 2 38 995 14.0250 140.115 TS 35 998 13.0323 140.244 1 30 3 312
1987343N05154 1987 101 WP MM PHYLLIS 1987-12-13 06:00:00 TS 13.5719 140.026 45 994 tokyo main 1570 1547 OOOO______P___ jtwc_wp WP251987 13.2000 140.200 30 -1 13.7000 140.100 3 45 994 0 9 150 150 0 13.8000 139.800 2 38 994 14.0000 140.000 TS 35 998 13.1596 140.028 1 30 4 267
1987343N05154 1987 101 WP MM PHYLLIS 1987-12-13 09:00:00 TS 13.5089 139.741 main 1536 1503 PPPP______P___ WP251987 13.2876 139.845 30 -1 13.5527 139.717 3 45 994 0 9 150 150 13.7025 139.468 2 38 994 13.7447 139.925 TS 35 998 13.2571 139.748 1 30 7 252
1987343N05154 1987 101 WP MM PHYLLIS 1987-12-13 12:00:00 TS 13.3600 139.340 45 994 tokyo main 1492 1446 OOOO______O___ jtwc_wp WP251987 13.3000 139.400 30 -1 13.3000 139.200 3 45 994 0 9 150 150 0 13.5000 139.000 2 38 994 13.4000 139.700 TS 35 998 13.3000 139.400 1 30 9 247
1987343N05154 1987 101 WP MM PHYLLIS 1987-12-13 15:00:00 TS 13.1676 138.899 main 1446 1389 PPPP______P___ WP251987 13.2223 139.022 30 -1 13.0498 138.773 3 45 994 0 9 150 150 13.1650 138.472 2 38 994 13.1276 139.182 TS 32 999 13.2730 139.047 1 30 10 247
1987343N05154 1987 101 WP MM PHYLLIS 1987-12-13 18:00:00 TS 12.9578 138.385 45 994 tokyo main 1389 1332 OOOO______P___ jtwc_wp WP251987 13.1000 138.600 30 -1 12.8000 138.300 3 45 994 0 9 150 150 0 12.8000 137.900 2 38 994 12.9000 138.500 TD 30 1000 13.1888 138.623 1 30 11 249
1987343N05154 1987 101 WP MM PHYLLIS 1987-12-13 21:00:00 TS 12.7739 137.827 main 1321 1254 PPPP______P___ WP251987 13.0073 138.103 30 -1 12.5700 137.730 3 45 993 0 9 125 125 12.5047 137.373 2 38 994 12.7274 137.815 TD 30 1000 13.0602 138.112 1 30 12 254
1987343N05154 1987 101 WP MM PHYLLIS 1987-12-14 00:00:00 TS 12.6200 137.200 45 992 tokyo main 1254 1188 OOOO______O___ jtwc_wp WP251987 12.9000 137.500 30 -1 12.4000 137.100 3 45 992 0 9 100 100 0 12.3000 136.800 2 38 994 12.6000 137.100 TD 30 1000 12.9000 137.500 1 30 13 258
1987343N05154 1987 101 WP MM PHYLLIS 1987-12-14 03:00:00 TS 12.5141 136.525 main 1177 1100 PPPP______P___ WP251987 12.7723 136.803 30 -1 12.3496 136.495 3 45 991 0 9 100 100 12.2350 136.123 2 38 994 12.4847 136.415 TD 30 1000 12.7290 136.787 1 31 14 261
1987343N05154 1987 101 WP MM PHYLLIS 1987-12-14 06:00:00 TS 12.4060 135.775 45 990 tokyo main 1100 1013 OOOO______P___ jtwc_wp WP251987 12.6000 136.000 30 -1 12.3000 135.800 3 45 990 0 9 100 100 0 12.2000 135.400 2 38 994 12.4000 135.700 TD 30 1000 12.5302 135.977 1 32 16 260
1987343N05154 1987 101 WP MM PHYLLIS 1987-12-14 09:00:00 TS 12.2452 134.957 main 1011 913 PPPP______P___ WP251987 12.3573 135.130 32 -1 12.1152 134.922 3 47 987 0 9 100 100 12.0648 134.707 2 43 992 12.3723 134.923 TD 32 997 12.3162 135.103 1 33 17 258
1987343N05154 1987 101 WP MM PHYLLIS 1987-12-14 12:00:00 TS 12.0600 134.100 50 985 tokyo main 913 824 OOOO______O___ jtwc_wp WP251987 12.1000 134.200 35 0 11.9000 134.000 4 50 985 0 9 100 100 0 11.9000 134.000 3 48 990 12.3000 134.100 TS 35 995 12.1000 134.200 2 35 17 257
1987343N05154 1987 101 WP MM PHYLLIS 1987-12-14 15:00:00 TS 11.8542 133.253 main 824 724 PPPP______P___ WP251987 11.8924 133.243 40 0 11.7346 133.193 4 55 980 0 9 125 125 11.7348 133.265 3 48 987 12.0648 133.257 TS 40 992 11.8444 133.309 2 40 17 256
1987343N05154 1987 101 WP MM PHYLLIS 1987-12-14 18:00:00 TS 11.6595 132.400 60 975 tokyo main 724 635 OOOO______P___ jtwc_wp WP251987 11.7000 132.300 45 0 11.6000 132.400 4 60 975 9 60 60 9 150 150 0 11.6000 132.500 3 48 985 11.8000 132.400 TS 45 990 11.5975 132.399 2 45 17 258
1987343N05154 1987 101 WP MM PHYLLIS 1987-12-14 21:00:00 TS 11.4962 131.545 main 624 536 PPPP______P___ WP251987 11.4621 131.435 50 0 11.4774 131.550 4 65 970 9 60 60 9 150 150 11.5199 131.700 3 53 977 11.6198 131.550 TS 50 987 11.4018 131.490 2 50 17 261
1987343N05154 1987 101 WP MM PHYLLIS 1987-12-15 00:00:00 TS 11.4000 130.700 70 965 tokyo main 536 449 OOOO______O___ jtwc_wp WP251987 11.3000 130.600 55 0 11.4000 130.700 5 70 965 9 60 60 9 150 150 0 11.5000 130.900 3 58 970 11.5000 130.700 STS 55 985 11.3000 130.600 2 55 16 266
1987343N05154 1987 101 WP MM PHYLLIS 1987-12-15 03:00:00 TS 11.3954 129.873 main 449 362 PPPP______P___ WP251987 11.3123 129.743 60 0 11.3772 129.900 5 70 965 9 60 60 9 150 150 11.5422 130.143 3 63 967 11.4198 129.843 STS 57 982 11.3253 129.737 2 60 16 271
1987343N05154 1987 101 WP MM PHYLLIS 1987-12-15 06:00:00 TS 11.4400 129.060 70 965 tokyo main 362 278 OOOO______O___ jtwc_wp WP251987 11.4000 128.900 65 1 11.4000 129.100 5 70 965 9 60 60 9 150 150 0 11.6000 129.400 4 68 965 11.4000 129.000 STS 60 980 11.4000 128.900 3 65 16 273
1987343N05154 1987 101 WP MM PHYLLIS 1987-12-15 09:00:00 TS 11.4749 128.243 main 267 193 PPPP______P___ WP251987 11.4422 128.092 70 1 11.4426 128.228 5 72 962 9 60 60 9 150 150 11.5998 128.650 4 68 962 11.4424 128.170 STS 62 977 11.4474 128.075 3 70 16 273
1987343N05154 1987 101 WP MM PHYLLIS 1987-12-15 12:00:00 TS 11.5200 127.460 75 960 tokyo main 193 128 OOOO______O___ jtwc_wp WP251987 11.5000 127.300 75 1 11.5000 127.400 5 75 960 9 60 60 9 150 150 0 11.6000 127.900 4 68 960 11.5000 127.400 T 65 975 11.5000 127.300 4 75 15 273
1987343N05154 1987 101 WP MM PHYLLIS 1987-12-15 15:00:00 TS 11.5650 126.712 main 118 58 PPPP______P___ WP251987 11.6001 126.448 82 1 11.5498 126.698 5 75 960 9 60 60 9 150 150 11.6424 127.135 4 72 960 11.4848 126.712 T 67 972 11.5478 126.569 4 81 14 274
1987343N05154 1987 101 WP MM PHYLLIS 1987-12-15 18:00:00 TS 11.6211 126.041 75 960 tokyo main 49 0 OOOO______P___ jtwc_wp WP251987 11.7000 125.700 90 2 11.6000 126.100 5 75 960 9 60 60 9 150 150 0 11.7000 126.400 4 77 960 11.5000 126.100 T 70 970 11.6054 125.903 4 87 12 275
1987343N05154 1987 101 WP MM PHYLLIS 1987-12-15 21:00:00 TS 11.6819 125.465 main 0 0 PPPP______P___ WP251987 11.7347 125.182 95 2 11.6197 125.592 5 72 965 9 60 60 9 150 150 11.7424 125.712 4 77 957 11.6273 125.528 T 75 967 11.6852 125.311 4 93 11 279
1987343N05154 1987 101 WP MM PHYLLIS 1987-12-16 00:00:00 TS 11.7800 124.960 70 970 tokyo main 0 0 OOOO______O___ jtwc_wp WP251987 11.8000 124.800 100 3 11.7000 125.100 5 70 970 9 60 60 9 150 150 0 11.8000 125.100 4 77 955 11.8000 125.000 T 80 965 11.8000 124.800 4 100 10 285
1987343N05154 1987 101 WP MM PHYLLIS 1987-12-16 03:00:00 TS 11.9492 124.453 main 24 0 PPPP______P___ WP251987 11.9774 124.435 95 2 11.9352 124.463 5 67 972 9 55 55 9 150 150 11.8924 124.548 4 77 957 11.9575 124.455 T 75 970 11.9837 124.363 4 96 10 291
1987343N05154 1987 101 WP MM PHYLLIS 1987-12-16 06:00:00 TS 12.1398 124.021 65 975 tokyo main 0 0 OOOO______P___ jtwc_wp WP251987 12.2000 124.100 90 2 12.2000 123.900 5 65 975 9 50 50 9 150 150 0 12.0000 124.100 4 77 960 12.1000 124.000 T 70 975 12.1991 124.003 4 92 8 296
1987343N05154 1987 101 WP MM PHYLLIS 1987-12-16 09:00:00 TS 12.3004 123.704 main 10 0 PPPP______P___ WP251987 12.4150 123.743 87 2 12.3723 123.597 5 60 980 9 50 50 9 150 150 12.0998 123.777 4 72 965 12.1998 123.712 T 67 975 12.4151 123.691 4 88 6 298
1987343N05154 1987 101 WP MM PHYLLIS 1987-12-16 12:00:00 TS 12.4400 123.440 55 985 tokyo main 0 0 OOOO______O___ jtwc_wp WP251987 12.6000 123.400 85 2 12.5000 123.400 4 55 985 9 50 50 9 150 150 0 12.2000 123.500 4 68 970 12.3000 123.500 T 65 975 12.6000 123.400 4 85 6 296
1987343N05154 1987 101 WP MM PHYLLIS 1987-12-16 15:00:00 TS 12.5606 123.150 main 15 15 PPPP______P___ WP251987 12.7224 123.092 82 1 12.6075 123.157 4 55 982 9 50 50 9 150 150 12.3000 123.157 4 68 972 12.4500 123.258 T 65 975 12.7229 123.085 4 82 6 291
1987343N05154 1987 101 WP MM PHYLLIS 1987-12-16 18:00:00 TS 12.6620 122.857 55 980 tokyo main 48 44 OOOO______P___ jtwc_wp WP251987 12.8000 122.800 80 1 12.7000 122.900 4 55 980 9 50 50 9 150 150 0 12.4000 122.800 4 68 975 12.6000 123.000 T 65 975 12.8097 122.785 4 80 6 289
1987343N05154 1987 101 WP MM PHYLLIS 1987-12-16 21:00:00 TS 12.7568 122.554 main 44 44 PPPP______P___ WP251987 12.8650 122.500 77 1 12.8150 122.615 4 57 977 9 50 50 9 150 150 12.5150 122.450 4 68 975 12.7225 122.715 T 67 972 12.8667 122.492 4 77 6 285
1987343N05154 1987 101 WP MM PHYLLIS 1987-12-17 00:00:00 TS 12.8200 122.240 60 975 tokyo main 62 39 OOOO______O___ jtwc_wp WP251987 12.9000 122.200 75 1 12.9000 122.300 4 60 975 9 50 50 9 150 150 0 12.6000 122.100 4 68 975 12.8000 122.400 T 70 970 12.9000 122.200 4 75 6 278
1987343N05154 1987 101 WP MM PHYLLIS 1987-12-17 03:00:00 TS 12.8434 121.922 main 39 10 PPPP______P___ WP251987 12.9075 121.900 72 1 12.9224 121.965 4 62 972 9 55 55 9 150 150 12.6225 121.742 4 63 975 12.8149 122.080 T 70 970 12.9497 121.920 4 71 6 271
1987343N05154 1987 101 WP MM PHYLLIS 1987-12-17 06:00:00 TS 12.8349 121.588 65 970 tokyo main 10 0 OOOO______P___ jtwc_wp WP251987 12.9000 121.600 70 1 12.9000 121.600 5 65 970 9 60 60 9 150 150 0 12.6000 121.400 3 58 975 12.8000 121.700 T 70 970 12.9746 121.638 4 67 7 269
1987343N05154 1987 101 WP MM PHYLLIS 1987-12-17 09:00:00 TS 12.8289 121.229 main 0 0 PPPP______P___ WP251987 12.9149 121.308 65 1 12.8800 121.193 5 65 972 9 60 60 9 150 150 12.5649 121.093 3 58 975 12.8226 121.215 T 67 972 12.9621 121.336 4 63 7 266
1987343N05154 1987 101 WP MM PHYLLIS 1987-12-17 12:00:00 TS 12.7800 120.860 65 975 tokyo main 0 0 OOOO______O___ jtwc_wp WP251987 12.9000 121.000 60 0 12.8000 120.800 5 65 975 9 60 60 9 150 150 0 12.5000 120.800 3 58 975 12.8000 120.700 T 65 975 12.9000 121.000 2 60 7 257
1987343N05154 1987 101 WP MM PHYLLIS 1987-12-17 15:00:00 TS 12.6722 120.514 main 32 32 PPPP______P___ WP251987 12.8374 120.680 50 0 12.6448 120.515 5 62 977 9 55 55 9 150 150 12.4149 120.515 3 58 977 12.7174 120.228 T 62 977 12.7467 120.631 2 52 8 247
1987343N05154 1987 101 WP MM PHYLLIS 1987-12-17 18:00:00 TS 12.4899 120.145 60 980 tokyo main 79 79 OOOO______P___ jtwc_wp WP251987 12.7000 120.300 40 0 12.4000 120.200 4 60 980 9 50 50 9 150 150 0 12.3000 120.200 3 58 980 12.5000 119.800 STS 60 980 12.5497 120.224 2 45 9 239
1987343N05154 1987 101 WP MM PHYLLIS 1987-12-17 21:00:00 TS 12.2045 119.725 main 101 78 PPPP______P___ WP251987 12.4724 119.837 35 0 12.0126 119.722 4 55 982 9 9 137 137 12.1649 119.830 3 53 982 12.0198 119.457 STS 55 980 12.3528 119.781 2 37 10 238
1987343N05154 1987 101 WP MM PHYLLIS 1987-12-18 00:00:00 TS 11.9400 119.260 50 985 tokyo main 70 70 OOOO______O___ jtwc_wp WP251987 12.2000 119.300 30 -1 11.7000 119.200 4 50 985 0 9 125 125 0 12.0000 119.400 3 48 985 11.6000 119.100 STS 50 980 12.2000 119.300 1 30 10 247
1987343N05154 1987 101 WP MM PHYLLIS 1987-12-18 03:00:00 TS 11.7928 118.749 main 101 101 PPPP______P___ WP251987 11.8751 118.700 30 -1 11.6599 118.750 4 50 985 0 9 125 125 11.7474 118.930 3 48 985 11.5601 118.608 STS 50 980 12.1216 118.758 1 30 10 261
1987343N05154 1987 101 WP MM PHYLLIS 1987-12-18 06:00:00 TS 11.7791 118.217 50 985 tokyo main 147 147 OOOO______P___ jtwc_wp WP251987 11.7000 118.100 30 -1 11.8000 118.300 4 50 985 0 9 125 125 0 11.6000 118.400 3 48 985 11.7000 118.100 STS 50 980 12.0955 118.185 1 30 10 277
1987343N05154 1987 101 WP MM PHYLLIS 1987-12-18 09:00:00 TS 11.9258 117.692 main 201 201 PPPP______P___ WP251987 11.8824 117.570 30 -1 12.0350 117.800 4 50 985 0 9 125 125 11.7551 117.785 3 48 985 11.8349 117.685 STS 50 980 12.1216 117.620 1 30 11 290
1987343N05154 1987 101 WP MM PHYLLIS 1987-12-18 12:00:00 TS 12.1400 117.200 50 985 tokyo main 260 260 OOOO______O___ jtwc_wp WP251987 12.2000 117.100 30 -1 12.3000 117.300 4 50 985 0 9 125 125 0 12.0000 117.200 3 48 985 12.0000 117.300 STS 50 980 12.2000 117.100 1 30 10 292
1987343N05154 1987 101 WP MM PHYLLIS 1987-12-18 15:00:00 TS 12.2980 116.771 main 308 308 PPPP______P___ WP251987 12.4149 116.677 32 -1 12.4725 116.827 4 50 985 0 9 125 125 12.0998 116.777 3 48 985 12.1424 116.900 STS 50 980 12.3607 116.675 1 31 9 291
1987343N05154 1987 101 WP MM PHYLLIS 1987-12-18 18:00:00 TS 12.4529 116.380 50 985 tokyo main 357 357 OOOO______P___ jtwc_wp WP251987 12.6000 116.300 35 0 12.6000 116.400 4 50 985 0 9 125 125 0 12.2000 116.400 3 48 985 12.3000 116.500 STS 50 980 12.5643 116.298 1 32 8 294
1987343N05154 1987 101 WP MM PHYLLIS 1987-12-18 21:00:00 TS 12.6341 115.993 main 402 402 PPPP______P___ WP251987 12.7799 115.950 35 0 12.7074 116.035 4 50 987 0 9 112 112 12.4225 115.943 3 48 985 12.5000 116.093 STS 50 980 12.7608 115.947 1 33 8 294
1987343N05154 1987 101 WP MM PHYLLIS 1987-12-19 00:00:00 TS 12.7800 115.620 50 990 tokyo main 450 450 OOOO______O___ jtwc_wp WP251987 12.9000 115.600 35 0 12.8000 115.700 4 50 990 0 9 100 100 0 12.6000 115.500 3 48 985 12.7000 115.700 STS 50 980 12.9000 115.600 2 35 8 287
1987343N05154 1987 101 WP MM PHYLLIS 1987-12-19 03:00:00 TS 12.8579 115.247 main 495 495 PPPP______P___ WP251987 12.9375 115.200 32 -1 12.9149 115.358 4 47 991 0 9 100 100 12.6100 115.112 3 43 987 12.8799 115.343 STS 47 982 12.9471 115.221 2 32 7 277
1987343N05154 1987 101 WP MM PHYLLIS 1987-12-19 06:00:00 TS 12.8655 114.889 45 992 tokyo main 521 521 OOOO______P___ jtwc_wp WP251987 12.9000 114.800 30 -1 13.0000 115.000 3 45 992 0 9 100 100 0 12.5000 114.800 2 38 990 13.0000 115.000 TS 45 985 12.9273 114.842 2 30 7 267
1987343N05154 1987 101 WP MM PHYLLIS 1987-12-19 09:00:00 TS 12.8262 114.548 main 540 510 PPPP______P___ WP251987 12.8299 114.450 27 -1 13.0675 114.593 3 42 994 0 9 100 100 12.3299 114.570 2 33 993 13.0599 114.658 TS 42 987 12.8439 114.468 2 27 7 255
1987343N05154 1987 101 WP MM PHYLLIS 1987-12-19 12:00:00 TS 12.6842 114.216 40 996 tokyo main 510 477 OOOO______O___ jtwc_wp WP251987 12.7000 114.100 25 -1 13.0000 114.200 3 40 996 0 9 100 100 0 12.1000 114.400 1 29 996 13.0000 114.300 TS 40 990 12.7000 114.100 1 25 7 239
1987343N05154 1987 101 WP MM PHYLLIS 1987-12-19 15:00:00 TS 12.4473 113.893 main 478 447 PPPP______P___ WP251987 12.5300 113.693 25 -1 12.6949 113.885 3 37 998 0 9 100 100 11.8650 114.243 1 29 998 12.7927 113.910 TS 35 995 12.5265 113.743 1 23 8 232
1987343N05154 1987 101 WP MM PHYLLIS 1987-12-19 18:00:00 TS 12.1801 113.561 35 1000 tokyo main 447 418 OOOO______P___ jtwc_wp WP251987 12.3000 113.300 25 -1 12.3000 113.600 3 35 1000 0 9 100 100 0 11.6000 114.100 1 29 1000 12.5000 113.500 TD 30 1000 12.2952 113.393 1 22 8 230
1987343N05154 1987 101 WP MM PHYLLIS 1987-12-19 21:00:00 TS 11.9142 113.239 main 409 383 PPP_______P___ WP251987 12.0224 112.993 22 -1 12.0074 113.323 3 1002 0 9 11.3075 113.952 1 29 1001 TD 12.0163 113.047 1 21 8 230
1987343N05154 1987 101 WP MM PHYLLIS 1987-12-20 00:00:00 TS 11.6364 112.909 1004 tokyo main 386 353 OOO_______O___ jtwc_wp WP251987 11.7000 112.700 20 -1 11.7000 113.000 2 1004 0 0 0 11.0000 113.800 1 29 1002 11.7000 112.700 1 20 10 233
1987343N05154 1987 101 WP MM PHYLLIS 1987-12-20 03:00:00 TS 11.3393 112.454 main 355 321 PP________P___ WP251987 11.3551 112.365 20 -1 11.3226 112.550 2 1006 0 0 1 11.3569 112.351 1 20 11 230
1987343N05154 1987 101 WP MM PHYLLIS 1987-12-20 06:00:00 TS 10.9400 112.060 1008 tokyo main 325 309 OO________O___ jtwc_wp WP251987 11.0000 112.000 20 -1 10.9000 112.100 2 1008 0 0 0 11.0000 112.000 1 20 11 218
1987343N05154 1987 101 WP MM PHYLLIS 1987-12-20 09:00:00 TS 10.4550 111.762 main 314 308 _P____________ WP251987 -1 10.4550 111.762 2 1008 0 0 1 11 210
1987343N05154 1987 101 WP MM PHYLLIS 1987-12-20 12:00:00 TS 10.0000 111.500 1008 tokyo main 315 _O____________ -1 10.0000 111.500 2 1008 0 0 0 11 210

Digital Typhoon Data and Search

About IBTrACS Database

This database is a web-friendly format of International Best Track Archive for Climate Stewardship (IBTrACS), a global best track data archive curated by NOAA dating back to 1842.

Updated: 2021-10-08